Time;durP1;ratioP1;P1;durP2;ratioP2;P2;SDS_P1;SDS_P2;PMS_P1;PMS_P2;Temp;Humidity;BMP_temperature;BMP_pressure;BME280_temperature;BME280_humidity;BME280_pressure;Samples;Min_cycle;Max_cycle;Signal;HPM_P1;HPM_P2
2022/08/01 00:00:31;;;;;;;8.77;5.10;;;;;;;-144.47;59.88;53269.22;5016563;28;20040;-67
2022/08/01 00:02:57;;;;;;;10.35;5.68;;;;;;;-144.47;59.58;53267.25;5016970;28;20073;-66
2022/08/01 00:05:22;;;;;;;9.98;5.10;;;;;;;-144.47;59.58;53257.31;5011083;28;20468;-66
2022/08/01 00:07:48;;;;;;;9.07;5.13;;;;;;;-144.47;59.03;53269.22;5009070;28;20048;-68
2022/08/01 00:10:15;;;;;;;11.90;5.68;;;;;;;-144.47;58.77;53301.03;5011949;28;20073;-69
2022/08/01 00:12:41;;;;;;;9.88;5.32;;;;;;;-144.47;58.29;53316.91;5010923;28;20022;-68
2022/08/01 00:15:09;;;;;;;12.57;5.00;;;;;;;-144.47;58.17;53291.09;5011142;28;20054;-66
2022/08/01 00:17:35;;;;;;;10.82;5.60;;;;;;;-144.47;57.93;53245.41;4992474;28;20026;-68
2022/08/01 00:20:02;;;;;;;9.25;5.20;;;;;;;-144.47;57.59;53275.19;5010858;28;20028;-70
2022/08/01 00:22:27;;;;;;;8.55;4.72;;;;;;;-144.47;57.54;53308.97;5010433;28;20045;-66
2022/08/01 00:24:53;;;;;;;9.82;5.00;;;;;;;-144.47;57.19;53253.34;4990997;28;20026;-66
2022/08/01 00:27:18;;;;;;;7.82;4.38;;;;;;;-144.47;57.03;53289.09;5006057;28;20038;-68
2022/08/01 00:29:43;;;;;;;14.10;5.18;;;;;;;-144.47;56.94;53263.28;5007353;28;20043;-66
2022/08/01 00:32:09;;;;;;;17.13;4.88;;;;;;;-144.47;57.04;53249.38;5009085;28;20226;-68
2022/08/01 00:34:34;;;;;;;7.90;3.92;;;;;;;-144.47;56.99;53293.06;5011718;28;20491;-68
2022/08/01 00:36:59;;;;;;;10.85;4.57;;;;;;;-144.47;57.01;53253.34;5010310;28;20025;-68
2022/08/01 00:39:25;;;;;;;13.88;5.00;;;;;;;-144.47;57.20;53285.13;5011326;28;20040;-65
2022/08/01 00:41:50;;;;;;;11.73;4.43;;;;;;;-144.47;57.35;53227.53;5010013;28;20160;-68
2022/08/01 00:44:16;;;;;;;9.57;4.32;;;;;;;-144.47;57.79;53269.22;5010451;28;20018;-67
2022/08/01 00:46:41;;;;;;;11.98;4.43;;;;;;;-144.47;57.83;53249.38;4976899;28;20045;-67
2022/08/01 00:49:07;;;;;;;7.07;4.50;;;;;;;-144.47;57.91;53306.97;5011177;28;20113;-67
2022/08/01 00:51:33;;;;;;;10.93;4.80;;;;;;;-144.47;58.15;53261.28;5009655;28;20129;-66
2022/08/01 00:54:00;;;;;;;8.88;4.35;;;;;;;-144.47;57.87;53308.97;5009019;28;20288;-67
2022/08/01 00:56:26;;;;;;;11.77;5.03;;;;;;;-144.47;58.27;53277.19;4992988;28;20379;-66
2022/08/01 00:58:53;;;;;;;9.07;4.03;;;;;;;-144.47;58.16;53269.22;5011277;28;20029;-68
2022/08/01 01:01:20;;;;;;;13.18;5.25;;;;;;;-144.47;58.63;53259.31;5009693;28;20377;-67
2022/08/01 01:03:46;;;;;;;8.45;4.90;;;;;;;-144.47;59.01;53273.22;5009579;28;20029;-66
2022/08/01 01:06:26;;;;;;;13.63;4.82;;;;;;;-144.47;58.68;53275.19;5009380;28;20202;-67
2022/08/01 01:09:23;;;;;;;17.60;4.90;;;;;;;-144.47;58.52;53289.09;4993817;28;20391;-69
2022/08/01 01:11:54;;;;;;;10.45;4.40;;;;;;;-144.47;57.42;53285.13;5010946;28;20368;-68
2022/08/01 01:15:06;;;;;;;7.25;4.05;;;;;;;-144.47;56.52;53261.28;5009905;28;20041;-66
2022/08/01 01:17:52;;;;;;;6.65;4.15;;;;;;;-144.47;56.19;53301.03;5002387;28;20037;-66
2022/08/01 01:20:21;;;;;;;8.18;4.00;;;;;;;-144.47;56.18;53283.13;5010611;28;20113;-67
2022/08/01 01:22:52;;;;;;;;;;;;;;;-144.47;56.14;53277.19;5008697;28;20074;-65
2022/08/01 01:25:33;;;;;;;8.27;4.07;;;;;;;-144.47;55.96;53249.38;5011060;28;19956;-65
2022/08/01 01:28:13;;;;;;;9.25;4.30;;;;;;;-144.47;56.06;53289.09;5008848;28;20108;-67
2022/08/01 01:30:42;;;;;;;10.75;4.20;;;;;;;-144.47;55.91;53275.19;5010706;28;20109;-69
2022/08/01 01:33:10;;;;;;;6.82;3.72;;;;;;;-144.47;56.25;53261.28;5010117;28;20365;-69
2022/08/01 01:35:41;;;;;;;14.63;5.22;;;;;;;-144.47;56.12;53295.06;4973708;28;20038;-67
2022/08/01 01:38:22;;;;;;;6.60;3.85;;;;;;;-144.47;55.96;53273.22;5000114;28;20083;-65
2022/08/01 01:40:50;;;;;;;8.35;4.20;;;;;;;-144.47;56.11;53273.22;4999026;28;20045;-68
2022/08/01 01:43:16;;;;;;;7.65;4.55;;;;;;;-144.47;55.93;53245.41;5009877;28;20026;-66
2022/08/01 01:45:45;;;;;;;7.50;4.53;;;;;;;-144.47;55.70;53277.19;5009022;28;20109;-68
2022/08/01 01:48:15;;;;;;;8.65;3.85;;;;;;;-144.47;55.72;53263.28;5007800;28;20068;-66
2022/08/01 01:50:42;;;;;;;8.18;4.22;;;;;;;-144.47;55.46;53249.38;5009109;28;20037;-65
2022/08/01 01:53:10;;;;;;;8.93;3.90;;;;;;;-144.47;55.54;53239.44;4991339;28;20048;-66
2022/08/01 01:55:37;;;;;;;6.95;3.92;;;;;;;-144.47;55.67;53269.22;5009947;28;20033;-68
2022/08/01 01:58:04;;;;;;;6.95;4.05;;;;;;;-144.47;55.70;53295.06;5007594;28;20033;-70
2022/08/01 02:00:31;;;;;;;12.82;3.97;;;;;;;-144.47;55.84;53289.09;5008650;28;20026;-68
2022/08/01 02:02:58;;;;;;;7.60;3.78;;;;;;;-144.47;55.88;53261.28;4991923;28;20060;-65
2022/08/01 02:05:26;;;;;;;10.30;4.63;;;;;;;-144.47;56.15;53283.13;4992527;28;20030;-67
2022/08/01 02:07:54;;;;;;;11.77;5.47;;;;;;;-144.47;56.34;53265.25;4990614;28;20025;-65
2022/08/01 02:10:19;;;;;;;7.03;4.13;;;;;;;-144.47;56.47;53263.28;5009819;28;20217;-68
2022/08/01 02:12:47;;;;;;;10.07;4.63;;;;;;;-144.47;56.60;53275.19;5008263;28;20100;-70
2022/08/01 02:15:14;;;;;;;9.15;4.13;;;;;;;-144.47;56.74;53247.38;5007497;28;20391;-66
2022/08/01 02:17:43;;;;;;;9.30;4.22;;;;;;;-144.47;56.89;53285.13;4991054;28;20099;-68
2022/08/01 02:20:10;;;;;;;7.60;4.25;;;;;;;-144.47;56.89;53249.38;5009233;28;20482;-65
2022/08/01 02:22:48;;;;;;;10.73;4.65;;;;;;;-144.47;56.96;53285.13;4990818;28;20436;-67
2022/08/01 02:25:25;;;;;;;11.93;4.57;;;;;;;-144.47;57.21;53291.09;5009892;28;20030;-66
2022/08/01 02:27:53;;;;;;;7.97;4.80;;;;;;;-144.47;57.48;53261.28;5009038;28;20872;-66
2022/08/01 02:30:19;;;;;;;8.82;4.45;;;;;;;-144.47;57.59;53257.31;4991977;28;20026;-68
2022/08/01 02:32:49;;;;;;;10.50;4.13;;;;;;;-144.47;57.93;53269.22;5007572;28;20037;-66
2022/08/01 02:35:24;;;;;;;8.35;4.60;;;;;;;-144.47;58.06;53277.19;4973189;28;20018;-68
2022/08/01 02:37:51;;;;;;;11.18;4.63;;;;;;;-144.47;58.47;53295.06;4995811;28;20085;-68
2022/08/01 02:40:17;;;;;;;11.35;4.38;;;;;;;-144.47;58.55;53287.13;5007899;28;20508;-68
2022/08/01 02:42:49;;;;;;;10.27;5.38;;;;;;;-144.47;58.88;53297.03;4975218;28;20026;-67
2022/08/01 02:45:18;;;;;;;7.82;4.43;;;;;;;-144.47;58.94;53297.03;5007779;28;20101;-67
2022/08/01 02:47:45;;;;;;;8.82;4.28;;;;;;;-144.47;59.37;53265.25;5008395;28;20468;-68
2022/08/01 02:50:14;;;;;;;9.38;4.68;;;;;;;-144.47;59.84;53273.22;4991617;28;20036;-68
2022/08/01 02:52:41;;;;;;;8.57;4.68;;;;;;;-144.47;60.15;53308.97;5006838;28;20124;-66
2022/08/01 02:55:09;;;;;;;7.65;4.00;;;;;;;-144.47;60.66;53273.22;5008617;28;20030;-68
2022/08/01 02:57:37;;;;;;;12.23;4.18;;;;;;;-144.47;60.96;53299.03;5007459;28;20036;-67
2022/08/01 03:00:04;;;;;;;10.27;4.13;;;;;;;-144.47;61.21;53324.84;5007990;28;20509;-68
2022/08/01 03:02:31;;;;;;;11.63;4.97;;;;;;;-144.47;61.76;53293.06;5008954;28;20042;-65
2022/08/01 03:04:58;;;;;;;8.55;3.85;;;;;;;-144.47;62.06;53259.31;4991039;28;20120;-68
2022/08/01 03:07:25;;;;;;;7.25;3.72;;;;;;;-144.47;62.40;53245.41;4998552;28;20037;-69
2022/08/01 03:09:52;;;;;;;7.47;3.65;;;;;;;-144.47;62.65;53275.19;5007736;28;20072;-66
2022/08/01 03:12:22;;;;;;;9.82;3.67;;;;;;;-144.47;63.04;53285.13;5007277;28;20162;-68
2022/08/01 03:14:51;;;;;;;9.98;3.50;;;;;;;-144.47;63.25;53299.03;5005887;28;20470;-68
2022/08/01 03:17:20;;;;;;;12.10;3.53;;;;;;;-144.47;63.24;53279.16;5006716;28;20025;-67
2022/08/01 03:19:48;;;;;;;40.70;3.97;;;;;;;-144.47;63.57;53287.13;4991214;28;20124;-69
2022/08/01 03:22:15;;;;;;;9.45;3.40;;;;;;;-144.47;63.92;53305.00;5004907;22;20046;-66
2022/08/01 03:24:42;;;;;;;7.75;4.18;;;;;;;-144.47;64.12;53318.91;5028792;28;20422;-65
2022/08/01 03:27:09;;;;;;;7.00;3.50;;;;;;;-144.47;64.25;53295.06;5027919;28;20112;-65
2022/08/01 03:29:35;;;;;;;11.18;3.42;;;;;;;-144.47;64.32;53336.78;5029686;28;20483;-67
2022/08/01 03:32:02;;;;;;;6.65;3.22;;;;;;;-144.47;64.45;53301.03;5029437;28;20156;-66
2022/08/01 03:34:28;;;;;;;9.68;3.50;;;;;;;-144.47;64.47;53291.09;5022039;28;20053;-65
2022/08/01 03:37:26;;;;;;;6.00;3.60;;;;;;;-144.47;64.00;53320.88;5006769;28;20029;-67
2022/08/01 03:40:05;;;;;;;7.25;3.83;;;;;;;-144.47;64.00;53281.16;4996473;28;20125;-66
2022/08/01 03:42:37;;;;;;;10.27;4.28;;;;;;;-144.47;64.17;53301.03;5007463;28;20033;-65
2022/08/01 03:45:09;;;;;;;12.70;4.00;;;;;;;-144.47;64.17;53318.91;5007745;28;20400;-67
2022/08/01 03:47:35;;;;;;;10.25;5.03;;;;;;;-144.47;63.95;53277.19;5007392;28;20038;-66
2022/08/01 03:50:03;;;;;;;10.35;4.45;;;;;;;-144.47;64.10;53277.19;5008078;28;20022;-66
2022/08/01 03:52:31;;;;;;;9.30;4.38;;;;;;;-144.47;64.12;53283.13;5008116;28;20048;-65
2022/08/01 03:55:01;;;;;;;9.53;4.43;;;;;;;-144.47;63.93;53275.19;5009348;28;20045;-66
2022/08/01 03:57:29;;;;;;;7.30;4.07;;;;;;;-144.47;64.28;53344.72;5003936;28;20429;-66
2022/08/01 03:59:58;;;;;;;8.15;4.13;;;;;;;-144.47;64.72;53332.81;5004891;28;20044;-68
2022/08/01 04:02:26;;;;;;;12.27;4.43;;;;;;;-144.47;64.84;53265.25;5007458;28;20038;-66
2022/08/01 04:04:51;;;;;;;7.28;4.22;;;;;;;-144.47;65.30;53265.25;5008991;28;20167;-67
2022/08/01 04:07:36;;;;;;;7.72;4.60;;;;;;;-144.47;65.46;53267.25;5009272;28;20462;-66
2022/08/01 04:10:04;;;;;;;13.95;4.90;;;;;;;-144.47;65.99;53320.88;5011382;28;20113;-65
2022/08/01 04:12:29;;;;;;;8.68;5.22;;;;;;;-144.47;65.87;53279.16;5012622;28;20049;-65
2022/08/01 04:14:54;;;;;;;9.77;5.32;;;;;;;-144.47;66.15;53293.06;5011260;28;20049;-66
2022/08/01 04:17:20;;;;;;;7.97;5.10;;;;;;;-144.47;66.11;53312.94;5011649;28;20029;-66
2022/08/01 04:19:45;;;;;;;9.82;5.07;;;;;;;-144.47;65.96;53308.97;5012016;28;20080;-66
2022/08/01 04:22:14;;;;;;;10.45;5.18;;;;;;;-144.47;65.92;53297.03;5009627;28;20022;-64
2022/08/01 04:24:42;;;;;;;10.73;4.90;;;;;;;-144.47;66.21;53320.88;5010709;28;20160;-66
2022/08/01 04:27:14;;;;;;;10.68;4.78;;;;;;;-144.47;66.22;53308.97;4978413;28;20072;-67
2022/08/01 04:29:42;;;;;;;7.57;4.32;;;;;;;-144.47;66.51;53318.91;4976473;28;20038;-66
2022/08/01 04:32:11;;;;;;;10.65;5.03;;;;;;;-144.47;66.43;53324.84;5010953;28;20033;-66
2022/08/01 04:34:39;;;;;;;7.38;4.30;;;;;;;-144.47;66.68;53293.06;5020741;28;20033;-66
2022/08/01 04:37:09;;;;;;;7.53;3.92;;;;;;;-144.47;66.81;53308.97;5009767;28;20022;-67
2022/08/01 04:39:37;;;;;;;7.97;4.15;;;;;;;-144.47;66.77;53318.91;5011563;28;20472;-67
2022/08/01 04:42:04;;;;;;;6.88;3.33;;;;;;;-144.47;66.85;53301.03;5010444;28;20053;-65
2022/08/01 04:44:32;;;;;;;6.25;3.38;;;;;;;-144.47;66.99;53303.00;5012336;28;20495;-67
2022/08/01 04:46:59;;;;;;;5.95;3.47;;;;;;;-144.47;67.47;53318.91;4993001;28;20403;-66
2022/08/01 04:49:25;;;;;;;7.85;3.33;;;;;;;-144.47;67.38;53330.81;5011406;28;20028;-66
2022/08/01 04:51:57;;;;;;;6.85;2.72;;;;;;;-144.47;67.41;53275.19;4993910;28;20026;-68
2022/08/01 04:54:38;;;;;;;8.35;2.97;;;;;;;-144.47;67.25;53301.03;5010155;28;20121;-66
2022/08/01 04:57:05;;;;;;;7.78;3.40;;;;;;;-144.47;67.34;53320.88;4985941;28;20066;-65
2022/08/01 04:59:41;;;;;;;7.97;3.03;;;;;;;-144.47;67.50;53303.00;5005130;28;20022;-67
2022/08/01 05:02:18;;;;;;;6.63;3.08;;;;;;;-144.47;67.67;53281.16;5011046;28;20480;-65
2022/08/01 05:04:45;;;;;;;5.50;2.60;;;;;;;-144.47;67.93;53297.03;4993399;28;20041;-68
2022/08/01 05:07:12;;;;;;;6.85;3.58;;;;;;;-144.47;67.47;53314.91;4986128;28;20496;-66
2022/08/01 05:09:41;;;;;;;7.75;2.67;;;;;;;-144.47;67.13;53316.91;5007995;28;20113;-67
2022/08/01 05:12:07;;;;;;;8.32;3.17;;;;;;;-144.47;66.95;53281.16;5010883;28;20033;-67
2022/08/01 05:14:33;;;;;;;5.05;3.20;;;;;;;-144.47;66.95;53330.81;5010022;28;20037;-66
2022/08/01 05:17:02;;;;;;;9.75;3.20;;;;;;;-144.47;67.71;53283.13;5010821;28;20095;-66
2022/08/01 05:19:31;;;;;;;10.13;3.70;;;;;;;-144.47;67.83;53324.84;5011515;28;20443;-66
2022/08/01 05:21:58;;;;;;;12.77;3.28;;;;;;;-144.47;68.52;53308.97;5009531;28;20755;-67
2022/08/01 05:24:24;;;;;;;6.93;3.40;;;;;;;-144.47;69.56;53293.06;4993262;28;20037;-67
2022/08/01 05:26:49;;;;;;;7.07;3.38;;;;;;;-144.47;70.07;53324.84;5010230;28;20045;-65
2022/08/01 05:29:15;;;;;;;7.60;3.05;;;;;;;-144.47;69.90;53330.81;4993096;28;20060;-66
2022/08/01 05:31:41;;;;;;;6.50;3.45;;;;;;;-144.47;70.16;53306.97;5010711;28;20322;-66
2022/08/01 05:34:06;;;;;;;7.90;3.53;;;;;;;-144.47;69.71;53316.91;5020056;28;20215;-66
2022/08/01 05:36:32;;;;;;;6.90;3.35;;;;;;;-144.47;69.30;53305.00;5008795;28;20099;-65
2022/08/01 05:38:57;;;;;;;13.77;3.22;;;;;;;-144.47;69.15;53285.13;5008881;28;20106;-68
2022/08/01 05:41:22;;;;;;;9.70;3.67;;;;;;;-144.47;68.91;53336.78;5001002;28;20025;-66
2022/08/01 05:43:48;;;;;;;11.38;3.80;;;;;;;-144.47;68.96;53297.03;5010484;28;20045;-66
2022/08/01 05:46:13;;;;;;;8.20;3.65;;;;;;;-144.47;68.21;53293.06;5010789;28;20437;-67
2022/08/01 05:48:39;;;;;;;16.17;4.40;;;;;;;-144.47;68.41;53305.00;5008121;28;20307;-67
2022/08/01 05:51:04;;;;;;;7.10;3.45;;;;;;;-144.47;67.53;53299.03;5010115;28;20022;-66
2022/08/01 05:53:30;;;;;;;9.23;3.47;;;;;;;-144.47;67.01;53342.72;5007589;28;20052;-66
2022/08/01 05:55:55;;;;;;;6.60;3.33;;;;;;;-144.47;66.53;53303.00;5008674;28;20029;-67
2022/08/01 05:58:21;;;;;;;7.70;3.58;;;;;;;-144.47;66.04;53305.00;5009062;28;20456;-67
2022/08/01 06:00:47;;;;;;;11.23;3.75;;;;;;;-144.47;65.82;53283.13;5009942;28;20025;-67
2022/08/01 06:03:14;;;;;;;12.15;5.22;;;;;;;-144.47;65.86;53289.09;5008441;28;20022;-68
2022/08/01 06:05:39;;;;;;;15.73;5.72;;;;;;;-144.47;66.24;53285.13;5009135;28;20381;-67
2022/08/01 06:08:05;;;;;;;8.57;5.05;;;;;;;-144.47;66.96;53310.94;5008432;28;20550;-66
2022/08/01 06:10:30;;;;;;;9.25;4.20;;;;;;;-144.47;67.10;53295.06;5010179;28;20025;-67
2022/08/01 06:12:55;;;;;;;7.13;3.70;;;;;;;-144.47;66.94;53267.25;5009978;28;20025;-67
2022/08/01 06:15:21;;;;;;;9.18;4.60;;;;;;;-144.47;67.31;53293.06;5010122;28;20052;-67
2022/08/01 06:17:46;;;;;;;8.00;4.35;;;;;;;-144.47;67.33;53301.03;4991150;28;20075;-68
2022/08/01 06:20:12;;;;;;;9.38;4.75;;;;;;;-144.47;67.36;53299.03;5008272;28;20120;-67
2022/08/01 06:22:37;;;;;;;11.38;4.82;;;;;;;-144.47;68.00;53285.13;5007537;28;20168;-66
2022/08/01 06:25:03;;;;;;;9.45;4.28;;;;;;;-144.47;68.20;53305.00;5009871;28;20038;-67
2022/08/01 06:27:29;;;;;;;12.68;4.88;;;;;;;-144.47;68.15;53305.00;5009575;28;20064;-66
2022/08/01 06:29:54;;;;;;;15.45;4.30;;;;;;;-144.47;68.70;53293.06;5007576;28;20026;-68
2022/08/01 06:32:24;;;;;;;6.35;3.50;;;;;;;-144.47;68.19;53293.06;4991688;28;20033;-66
2022/08/01 06:34:49;;;;;;;8.43;4.05;;;;;;;-144.47;67.48;53312.94;5018857;28;20276;-65
2022/08/01 06:37:15;;;;;;;15.27;3.80;;;;;;;-144.47;68.23;53299.03;5007825;28;20160;-67
2022/08/01 06:39:41;;;;;;;7.05;3.50;;;;;;;-144.47;68.10;53328.81;5008539;28;20018;-66
2022/08/01 06:42:06;;;;;;;8.15;3.53;;;;;;;-144.47;68.20;53312.94;4991356;28;20026;-67
2022/08/01 06:44:31;;;;;;;5.55;2.75;;;;;;;-144.47;68.68;53314.91;5009907;28;20033;-66
2022/08/01 06:46:58;;;;;;;10.05;3.65;;;;;;;-144.47;68.33;53281.16;4990490;28;20033;-66
2022/08/01 06:49:24;;;;;;;6.43;3.05;;;;;;;-144.47;68.54;53269.22;5009772;28;20085;-66
2022/08/01 06:51:49;;;;;;;5.32;2.63;;;;;;;-144.47;68.07;53291.09;5009161;28;20105;-66
2022/08/01 06:54:16;;;;;;;8.93;3.15;;;;;;;-144.47;68.54;53310.94;4991051;28;20137;-66
2022/08/01 06:56:41;;;;;;;6.88;2.90;;;;;;;-144.47;68.80;53318.91;5007960;28;20332;-66
2022/08/01 06:59:07;;;;;;;7.63;3.50;;;;;;;-144.47;68.33;53306.97;5008221;28;20110;-67
2022/08/01 07:01:32;;;;;;;7.30;3.58;;;;;;;-144.47;69.04;53297.03;5008363;28;20062;-66
2022/08/01 07:03:57;;;;;;;8.52;3.58;;;;;;;-144.47;68.93;53301.03;5009411;28;20488;-66
2022/08/01 07:06:24;;;;;;;6.63;3.60;;;;;;;-144.47;68.92;53287.13;5008132;28;20205;-68
2022/08/01 07:08:49;;;;;;;8.38;3.30;;;;;;;-144.47;68.00;53305.00;5006930;28;20028;-66
2022/08/01 07:11:15;;;;;;;6.15;3.40;;;;;;;-144.47;66.46;53318.91;5007518;28;20022;-67
2022/08/01 07:13:40;;;;;;;7.90;2.55;;;;;;;-144.47;66.11;53312.94;5009211;28;20049;-67
2022/08/01 07:16:06;;;;;;;6.97;3.00;;;;;;;-144.47;64.69;53285.13;5009200;28;20104;-67
2022/08/01 07:18:31;;;;;;;6.82;3.22;;;;;;;-144.47;63.99;53269.22;5008887;28;20038;-67
2022/08/01 07:20:57;;;;;;;4.80;2.50;;;;;;;-144.47;64.48;53303.00;5007717;28;20025;-67
2022/08/01 07:23:22;;;;;;;5.35;2.30;;;;;;;-144.47;63.64;53295.06;5008079;28;20265;-66
2022/08/01 07:25:48;;;;;;;4.70;1.83;;;;;;;-144.47;63.51;53316.91;4991463;28;20026;-65
2022/08/01 07:28:15;;;;;;;4.22;1.83;;;;;;;-144.47;63.19;53283.13;5008536;28;20045;-67
2022/08/01 07:30:41;;;;;;;10.68;1.80;;;;;;;-144.47;62.56;53281.16;5009661;28;20026;-66
2022/08/01 07:33:07;;;;;;;5.00;1.80;;;;;;;-144.47;63.08;53291.09;5014936;28;20009;-68
2022/08/01 07:35:33;;;;;;;3.90;1.90;;;;;;;-144.47;62.49;53285.13;5013373;28;20455;-68
2022/08/01 07:37:59;;;;;;;3.15;1.63;;;;;;;-144.47;62.28;53283.13;5006372;28;20057;-66
2022/08/01 07:40:24;;;;;;;7.05;1.83;;;;;;;-144.47;60.97;53235.47;4998881;28;20018;-66
2022/08/01 07:42:49;;;;;;;4.70;1.90;;;;;;;-144.47;59.83;53243.41;5012834;28;20034;-66
2022/08/01 07:45:15;;;;;;;2.33;1.40;;;;;;;-144.47;60.16;53279.16;5013779;28;20029;-66
2022/08/01 07:47:41;;;;;;;4.78;2.00;;;;;;;-144.47;60.40;53271.22;5011348;28;20029;-66
2022/08/01 07:50:07;;;;;;;6.25;2.35;;;;;;;-144.47;67.93;53285.13;4995564;28;20052;-67
2022/08/01 07:52:32;;;;;;;2.97;1.40;;;;;;;-144.47;68.65;53303.00;5009978;28;20112;-66
2022/08/01 07:54:58;;;;;;;4.15;2.03;;;;;;;-144.47;69.34;53287.13;5013221;28;20420;-67
2022/08/01 07:57:24;;;;;;;5.40;1.60;;;;;;;-144.47;72.17;53277.19;4974552;28;20026;-68
2022/08/01 07:59:50;;;;;;;9.55;1.83;;;;;;;-144.47;70.76;53293.06;5007081;28;20084;-67
2022/08/01 08:02:15;;;;;;;5.20;1.50;;;;;;;-144.47;70.48;53332.81;5010831;28;20018;-67
2022/08/01 08:04:41;;;;;;;4.13;1.77;;;;;;;-144.47;71.85;53324.84;5010788;28;20021;-67
2022/08/01 08:07:06;;;;;;;6.63;1.67;;;;;;;-144.47;72.24;53287.13;5009513;28;20029;-66
2022/08/01 08:09:32;;;;;;;6.78;1.58;;;;;;;-144.47;71.45;53354.66;5012637;28;20101;-67
2022/08/01 08:11:57;;;;;;;3.50;1.52;;;;;;;-144.47;71.13;53295.06;5010646;28;20057;-67
2022/08/01 08:14:23;;;;;;;3.53;1.70;;;;;;;-144.47;70.15;53330.81;5012648;28;20045;-68
2022/08/01 08:16:49;;;;;;;9.82;1.77;;;;;;;-144.47;69.88;53326.84;5010600;28;20026;-67
2022/08/01 08:19:14;;;;;;;5.75;1.92;;;;;;;-144.47;69.11;53316.91;5012018;28;20037;-66
2022/08/01 08:21:40;;;;;;;7.15;2.20;;;;;;;-144.47;67.49;53328.81;5012107;28;20101;-66
2022/08/01 08:24:19;;;;;;;8.48;1.92;;;;;;;-144.47;65.99;53283.13;5010999;28;20125;-66
2022/08/01 08:26:46;;;;;;;5.85;2.08;;;;;;;-144.47;64.25;53275.19;4980244;28;20474;-66
2022/08/01 08:29:12;;;;;;;4.82;1.80;;;;;;;-144.47;62.34;53318.91;5011735;28;20021;-68
2022/08/01 08:31:37;;;;;;;4.45;1.70;;;;;;;-144.47;61.86;53308.97;5011037;28;20030;-66
2022/08/01 08:34:03;;;;;;;2.95;1.40;;;;;;;-144.47;62.23;53312.94;5020333;28;20033;-68
2022/08/01 08:36:28;;;;;;;3.30;1.50;;;;;;;-144.47;61.11;53297.03;5011597;28;20060;-67
2022/08/01 08:38:54;;;;;;;11.07;2.75;;;;;;;-144.47;60.89;53277.19;5009760;28;20030;-67
2022/08/01 08:41:21;;;;;;;6.53;2.00;;;;;;;-144.47;61.40;53308.97;5010941;28;20080;-67
2022/08/01 08:43:47;;;;;;;5.70;1.80;;;;;;;-144.47;60.84;53308.97;5010995;28;20108;-67
2022/08/01 08:46:13;;;;;;;4.78;1.67;;;;;;;-144.47;60.33;53326.84;5012366;28;20026;-67
2022/08/01 08:48:42;;;;;;;8.13;1.92;;;;;;;-144.47;59.89;53318.91;4992470;28;20416;-67
2022/08/01 08:51:10;;;;;;;5.30;1.88;;;;;;;-144.47;59.45;53293.06;5011715;28;20037;-65
2022/08/01 08:53:38;;;;;;;4.47;1.90;;;;;;;-144.47;59.47;53275.19;5008623;28;20046;-67
2022/08/01 08:56:07;;;;;;;5.97;2.13;;;;;;;-144.47;58.03;53253.34;5012139;28;20030;-67
2022/08/01 08:58:37;;;;;;;2.95;1.42;;;;;;;-144.47;58.72;53269.22;4993187;28;20494;-66
2022/08/01 09:01:05;;;;;;;2.92;1.42;;;;;;;-144.47;58.32;53235.47;4994543;28;20041;-66
2022/08/01 09:03:32;;;;;;;3.97;1.50;;;;;;;-144.47;58.08;53279.16;5011189;28;20096;-68
2022/08/01 09:06:00;;;;;;;4.07;1.52;;;;;;;-144.47;56.52;53247.38;5011080;28;20226;-67
2022/08/01 09:08:26;;;;;;;3.35;1.35;;;;;;;-144.47;56.35;53253.34;5000958;28;20057;-67
2022/08/01 09:10:51;;;;;;;3.90;1.20;;;;;;;-144.47;56.35;53201.69;4993820;28;20065;-67
2022/08/01 09:13:17;;;;;;;6.38;1.70;;;;;;;-144.47;57.13;53263.28;5011193;28;20491;-66
2022/08/01 09:15:45;;;;;;;1.83;1.10;;;;;;;-144.47;56.54;53221.56;5011270;28;20034;-68
2022/08/01 09:18:29;;;;;;;3.42;1.10;;;;;;;-144.47;56.47;53273.22;4992730;28;20028;-65
2022/08/01 09:21:14;;;;;;;2.78;0.95;;;;;;;-144.47;56.02;53297.03;5011580;28;20038;-67
2022/08/01 09:23:42;;;;;;;1.00;0.70;;;;;;;-144.47;56.43;53257.31;5021915;22;20050;-68
2022/08/01 09:26:30;;;;;;;2.92;1.15;;;;;;;-144.47;55.69;53281.16;5026165;28;20370;-67
2022/08/01 09:28:55;;;;;;;2.95;0.98;;;;;;;-144.47;56.03;53259.31;5010125;28;20475;-68
2022/08/01 09:31:21;;;;;;;2.10;0.95;;;;;;;-144.47;56.49;53239.44;5010373;28;20030;-71
2022/08/01 09:33:47;;;;;;;1.90;0.75;;;;;;;-144.47;57.53;53271.22;5016263;28;20440;-67
2022/08/01 09:36:13;;;;;;;1.65;0.80;;;;;;;-144.47;57.80;53285.13;5008111;28;20049;-68
2022/08/01 09:38:38;;;;;;;8.52;1.30;;;;;;;-144.47;57.53;53265.25;5005919;28;20026;-67
2022/08/01 09:41:03;;;;;;;5.75;1.20;;;;;;;-144.47;57.71;53275.19;5009707;28;20668;-71
2022/08/01 09:43:30;;;;;;;1.25;0.82;;;;;;;-144.47;57.73;53245.41;5010425;28;20112;-66
2022/08/01 09:45:56;;;;;;;5.75;1.00;;;;;;;-144.47;56.37;53253.34;5010932;28;20029;-70
2022/08/01 09:48:23;;;;;;;4.68;0.80;;;;;;;-144.47;56.01;53277.19;4992045;28;20373;-71
2022/08/01 09:50:52;;;;;;;4.88;1.30;;;;;;;-144.47;54.39;53275.19;4993028;28;20026;-67
2022/08/01 09:53:18;;;;;;;2.53;1.10;;;;;;;-144.47;54.63;53247.38;5007923;28;20041;-66
2022/08/01 09:55:47;;;;;;;3.15;1.20;;;;;;;-144.47;53.99;53237.44;5008771;28;20080;-69
2022/08/01 09:58:12;;;;;;;4.65;1.05;;;;;;;-144.47;53.51;53205.66;5008129;28;20062;-69
2022/08/01 10:00:39;;;;;;;3.20;1.48;;;;;;;-144.47;53.80;53237.44;5008145;28;20029;-68
2022/08/01 10:03:24;;;;;;;2.95;1.55;;;;;;;-144.47;53.31;53253.34;5007785;28;20026;-70
2022/08/01 10:05:51;;;;;;;11.90;1.05;;;;;;;-144.47;52.61;53273.22;5007628;28;20080;-67
2022/08/01 10:08:17;;;;;;;2.17;0.95;;;;;;;-144.47;53.12;53283.13;5008481;28;20026;-68
2022/08/01 10:11:03;;;;;;;4.28;1.10;;;;;;;-144.47;53.98;53219.56;5009039;28;20029;-69
2022/08/01 10:13:28;;;;;;;1.30;0.70;;;;;;;-144.47;54.60;53263.28;5008480;28;20033;-67
2022/08/01 10:15:54;;;;;;;2.20;1.08;;;;;;;-144.47;54.33;53241.44;5008397;28;20034;-67
2022/08/01 10:18:20;;;;;;;1.85;0.93;;;;;;;-144.47;53.83;53281.16;5009558;28;20034;-69
2022/08/01 10:20:47;;;;;;;2.70;0.90;;;;;;;-144.47;53.11;53227.53;4992772;28;20395;-66
2022/08/01 10:23:13;;;;;;;2.95;1.40;;;;;;;-144.47;51.20;53249.38;5008268;28;20061;-66
2022/08/01 10:25:43;;;;;;;5.57;1.25;;;;;;;-144.47;50.98;53217.59;5009526;28;20030;-68
2022/08/01 10:28:17;;;;;;;10.48;1.52;;;;;;;-144.47;50.15;53249.38;5007977;28;20238;-66
2022/08/01 10:30:43;;;;;;;4.63;1.50;;;;;;;-144.47;50.07;53251.34;4996257;28;20029;-67
2022/08/01 10:33:10;;;;;;;2.97;1.20;;;;;;;-144.47;49.50;53229.50;5007473;28;20494;-68
2022/08/01 10:35:38;;;;;;;3.70;1.50;;;;;;;-144.47;48.89;53219.56;4992102;28;20033;-67
2022/08/01 10:38:04;;;;;;;3.22;1.55;;;;;;;-144.47;48.19;53233.47;5006626;28;20041;-70
2022/08/01 10:40:30;;;;;;;3.83;1.60;;;;;;;-144.47;48.50;53217.59;5008068;28;20099;-68
2022/08/01 10:42:56;;;;;;;4.30;1.63;;;;;;;-144.47;48.34;53235.47;5007246;28;20021;-67
2022/08/01 10:45:23;;;;;;;3.05;1.65;;;;;;;-144.47;48.15;53217.59;5007935;28;20059;-71
2022/08/01 10:48:11;;;;;;;3.00;1.52;;;;;;;-144.47;47.52;53251.34;5023261;28;20084;-65
2022/08/01 10:50:48;;;;;;;4.70;2.35;;;;;;;-144.47;47.33;53193.75;5024035;28;20117;-70
2022/08/01 10:53:17;;;;;;;2.97;1.73;;;;;;;-144.47;46.48;53227.53;5006855;28;20030;-69
2022/08/01 10:55:46;;;;;;;;;;;;;;;-144.47;47.30;53233.47;5008214;28;20109;-65
2022/08/01 10:58:12;;;;;;;5.30;2.30;;;;;;;-144.47;46.75;53203.69;5005161;28;19909;-69
2022/08/01 11:00:37;;;;;;;4.47;2.13;;;;;;;-144.47;46.35;53209.66;5007275;28;20032;-70
2022/08/01 11:03:03;;;;;;;5.97;1.85;;;;;;;-144.47;46.13;53193.75;5006701;28;20029;-66
2022/08/01 11:05:35;;;;;;;4.85;2.20;;;;;;;-144.47;45.84;53217.59;5006788;28;20034;-70
2022/08/01 11:08:10;;;;;;;5.35;2.22;;;;;;;-144.47;45.80;53181.84;4996612;28;20030;-66
2022/08/01 11:10:44;;;;;;;4.22;2.20;;;;;;;-144.47;45.28;53177.88;5007410;28;20022;-67
2022/08/01 11:13:11;;;;;;;4.63;2.00;;;;;;;-144.47;45.14;53201.69;5023488;28;20021;-70
2022/08/01 11:15:37;;;;;;;4.35;2.42;;;;;;;-144.47;45.55;53229.50;5006741;28;20033;-66
2022/08/01 11:18:30;;;;;;;5.28;2.20;;;;;;;-144.47;45.98;53215.59;5022586;28;20100;-66
2022/08/01 11:20:58;;;;;;;5.32;2.10;;;;;;;-144.47;45.58;53217.59;5009488;28;20026;-70